Terminal Aerodrome Forecast
Issued by NWS Wilmington, OH

Current Version | Previous Version | Graphics & Text | Print | Product List | Glossary On
Versions: 1 2 3 4 5 6 7 8 9 10 11 12 13 14 15 16 17 18 19 20 21 22 23 24 25 26 27 28 29 30 31 32 33 34 35
000
FTUS41 KILN 191958 AAA
TAFCVG
TAF AMD
KCVG 191958Z 1920/2024 19008KT P6SM VCTS SCT035CB BKN150
      TEMPO 1920/1924 VRB15G30KT 4SM -TSRA BKN012 OVC025CB
     FM200200 16004KT P6SM BKN200
     FM200900 VRB03KT 5SM BR SCT004 BKN050
     FM201100 VRB03KT 3SM BR SCT004 BKN050
     FM201400 12005KT P6SM BKN080
     FM201600 18005KT P6SM VCSH SCT050 BKN140=

USA.gov is the U.S. government's official web portal to all federal, state and local government web resources and services.